createdAt,value
2019-01-05T00:01:25.854Z,99.11
2019-01-05T00:04:15.335Z,99.34
2019-01-05T00:07:04.978Z,99.45
2019-01-05T00:09:58.572Z,99.73
2019-01-05T00:13:01.558Z,99.91
2019-01-05T00:15:52.327Z,99.71
2019-01-05T00:18:51.202Z,99.81
2019-01-05T00:21:45.886Z,100.00
2019-01-05T00:24:55.800Z,100.00
2019-01-05T00:27:56.002Z,100.00
2019-01-05T00:30:47.839Z,100.00
2019-01-05T00:33:38.956Z,100.00
2019-01-05T00:36:40.391Z,100.00
2019-01-05T00:39:29.757Z,100.00
2019-01-05T00:42:28.818Z,100.00
2019-01-05T00:45:34.464Z,100.00
2019-01-05T00:48:24.932Z,100.00
2019-01-05T00:51:21.276Z,100.00
2019-01-05T00:54:30.793Z,100.00
2019-01-05T00:57:37.738Z,100.00
2019-01-05T01:00:34.951Z,100.00
2019-01-05T01:03:37.639Z,100.00
2019-01-05T01:06:37.353Z,100.00
2019-01-05T01:09:18.831Z,100.00
2019-01-05T01:12:18.752Z,100.00
2019-01-05T01:15:09.724Z,100.00
2019-01-05T01:18:12.403Z,100.00
2019-01-05T01:21:09.325Z,100.00
2019-01-05T01:24:13.102Z,100.00
2019-01-05T01:27:03.196Z,100.00
2019-01-05T01:29:50.241Z,100.00
2019-01-05T01:32:42.337Z,100.00
2019-01-05T01:35:41.824Z,100.00
2019-01-05T01:38:49.421Z,100.00
2019-01-05T01:41:59.004Z,100.00
2019-01-05T01:44:52.182Z,100.00
2019-01-05T01:47:43.006Z,100.00
2019-01-05T01:50:40.900Z,100.00
2019-01-05T01:53:32.873Z,100.00
2019-01-05T01:56:31.209Z,100.00
2019-01-05T01:59:33.389Z,100.00
2019-01-05T02:02:26.851Z,100.00
2019-01-05T02:05:16.922Z,100.00
2019-01-05T02:08:15.829Z,100.00
2019-01-05T02:11:21.023Z,100.00
2019-01-05T02:14:23.455Z,100.00
2019-01-05T02:17:25.945Z,100.00
2019-01-05T02:21:18.203Z,100.00
2019-01-05T02:24:42.378Z,100.00
2019-01-05T02:28:29.999Z,100.00
2019-01-05T02:32:00.085Z,100.00
2019-01-05T02:35:48.345Z,100.00
2019-01-05T02:40:01.896Z,100.00
2019-01-05T02:44:11.741Z,100.00
2019-01-05T02:48:16.986Z,100.00
2019-01-05T02:51:52.388Z,100.00
2019-01-05T02:56:01.065Z,100.00
2019-01-05T02:59:58.111Z,100.00
2019-01-05T03:03:25.896Z,100.00
2019-01-05T03:07:20.741Z,100.00
2019-01-05T03:11:30.396Z,100.00
2019-01-05T03:15:32.276Z,100.00
2019-01-05T03:19:14.327Z,100.00
2019-01-05T03:23:40.430Z,100.00
2019-01-05T03:27:24.830Z,100.00
2019-01-05T03:30:48.849Z,100.00
2019-01-05T03:34:31.315Z,100.00
2019-01-05T03:38:33.606Z,100.00
2019-01-05T03:42:17.587Z,100.00
2019-01-05T03:46:35.713Z,100.00
2019-01-05T03:50:35.195Z,100.00
2019-01-05T03:54:48.504Z,100.00
2019-01-05T03:58:43.209Z,100.00
2019-01-05T04:02:34.571Z,100.00
2019-01-05T04:06:25.895Z,100.00
2019-01-05T04:10:12.105Z,100.00
2019-01-05T04:13:50.776Z,100.00
2019-01-05T04:17:31.081Z,100.00
2019-01-05T04:21:32.446Z,100.00
2019-01-05T04:25:23.280Z,100.00
2019-01-05T04:29:11.156Z,100.00
2019-01-05T04:32:51.060Z,100.00
2019-01-05T04:36:31.345Z,100.00
2019-01-05T04:40:02.345Z,100.00
2019-01-05T04:44:04.827Z,100.00
2019-01-05T04:47:37.462Z,100.00
2019-01-05T04:51:52.598Z,100.00
2019-01-05T04:55:53.597Z,100.00
2019-01-05T04:59:54.332Z,100.00
2019-01-05T05:03:26.916Z,100.00
2019-01-05T05:07:25.802Z,100.00
2019-01-05T05:11:13.543Z,100.00
2019-01-05T05:15:10.493Z,99.55
2019-01-05T05:19:20.788Z,99.22
2019-01-05T05:22:55.786Z,99.34
2019-01-05T05:26:47.400Z,99.02
2019-01-05T05:31:02.692Z,98.89
2019-01-05T05:34:51.979Z,98.74
2019-01-05T05:38:39.385Z,98.82
2019-01-05T05:42:54.765Z,98.52
2019-01-05T05:46:40.556Z,98.60
2019-01-05T05:50:41.837Z,98.89
2019-01-05T05:54:31.451Z,99.28
2019-01-05T05:58:32.463Z,99.09
2019-01-05T06:02:19.851Z,99.32
2019-01-05T06:06:05.046Z,99.13
2019-01-05T06:09:48.241Z,99.19
2019-01-05T06:13:55.783Z,99.36
2019-01-05T06:17:44.637Z,99.67
2019-01-05T06:22:07.750Z,99.72
2019-01-05T06:26:05.474Z,99.43
2019-01-05T06:29:49.807Z,99.11
2019-01-05T06:33:44.770Z,98.86
2019-01-05T06:37:30.221Z,98.91
2019-01-05T06:41:19.180Z,99.19
2019-01-05T06:45:15.755Z,99.34
2019-01-05T06:49:35.401Z,99.27
2019-01-05T06:53:51.928Z,99.52
2019-01-05T06:57:59.841Z,100.00
2019-01-05T07:01:58.677Z,100.00
2019-01-05T07:06:04.252Z,100.00
2019-01-05T07:09:53.614Z,100.00
2019-01-05T07:13:30.410Z,100.00
2019-01-05T07:17:40.885Z,100.00
2019-01-05T07:21:31.328Z,100.00
2019-01-05T07:25:26.554Z,100.00
2019-01-05T07:29:09.034Z,100.00
2019-01-05T07:33:10.287Z,100.00
2019-01-05T07:36:59.479Z,83.09
2019-01-05T07:40:51.791Z,69.93
2019-01-05T07:44:56.467Z,58.40
2019-01-05T07:48:47.843Z,51.30
2019-01-05T07:52:34.358Z,47.82
2019-01-05T07:56:27.874Z,44.03
2019-01-05T08:00:30.414Z,41.69
2019-01-05T08:04:38.583Z,39.53
2019-01-05T08:08:28.271Z,38.83
2019-01-05T08:12:25.908Z,35.81
2019-01-05T08:16:36.662Z,38.96
2019-01-05T08:20:18.187Z,42.97
2019-01-05T08:24:38.362Z,40.48
2019-01-05T08:28:44.972Z,38.12
2019-01-05T08:32:34.149Z,38.64
2019-01-05T08:36:53.304Z,39.37
2019-01-05T08:40:45.795Z,35.02
2019-01-05T08:44:49.307Z,32.42
2019-01-05T08:48:16.637Z,32.25
2019-01-05T08:51:53.421Z,31.02
2019-01-05T08:55:59.297Z,31.15
2019-01-05T09:00:08.439Z,32.69
2019-01-05T09:04:06.226Z,31.36
2019-01-05T09:08:07.283Z,29.68
2019-01-05T09:11:52.050Z,28.74
2019-01-05T09:15:36.684Z,27.72
2019-01-05T09:19:42.312Z,26.04
2019-01-05T09:23:47.921Z,26.67
2019-01-05T09:27:48.474Z,25.72
2019-01-05T09:32:03.360Z,24.72
2019-01-05T09:35:49.575Z,23.45
2019-01-05T09:39:43.618Z,23.10
2019-01-05T09:43:41.871Z,22.26
2019-01-05T09:47:29.641Z,21.92
2019-01-05T09:51:32.722Z,23.97
2019-01-05T09:55:39.007Z,25.26
2019-01-05T09:59:22.514Z,24.11
2019-01-05T10:03:54.345Z,23.38
2019-01-05T10:07:41.412Z,21.86
2019-01-05T10:11:25.089Z,23.41
2019-01-05T10:16:06.325Z,27.24
2019-01-05T10:19:42.216Z,30.65
2019-01-05T10:23:40.324Z,25.74
2019-01-05T10:27:39.353Z,26.19
2019-01-05T10:31:21.700Z,25.51
2019-01-05T10:35:19.052Z,25.20
2019-01-05T10:39:02.969Z,27.32
2019-01-05T10:42:54.862Z,30.40
2019-01-05T10:46:58.538Z,30.78
2019-01-05T10:51:12.161Z,30.48
2019-01-05T10:55:12.299Z,28.49
2019-01-05T10:59:16.941Z,27.59
2019-01-05T11:03:06.045Z,30.44
2019-01-05T11:06:41.505Z,32.33
2019-01-05T11:10:45.236Z,30.25
2019-01-05T11:14:42.651Z,27.99
2019-01-05T11:18:30.311Z,26.47
2019-01-05T11:22:30.878Z,30.35
2019-01-05T11:26:55.922Z,32.65
2019-01-05T11:30:51.539Z,34.62
2019-01-05T11:34:52.518Z,35.57
2019-01-05T11:38:42.753Z,33.82
2019-01-05T11:42:21.623Z,31.81
2019-01-05T11:45:59.176Z,32.62
2019-01-05T11:50:07.510Z,34.31
2019-01-05T11:54:08.042Z,35.28
2019-01-05T11:58:22.195Z,36.25
2019-01-05T12:02:09.330Z,32.63
2019-01-05T12:06:10.804Z,32.13
2019-01-05T12:10:13.946Z,33.46
2019-01-05T12:14:17.228Z,35.43
2019-01-05T12:18:38.327Z,36.37
2019-01-05T12:22:25.822Z,37.61
2019-01-05T12:26:11.630Z,42.02
2019-01-05T12:29:59.383Z,42.52
2019-01-05T12:34:06.386Z,42.42
2019-01-05T12:38:09.186Z,42.96
2019-01-05T12:42:34.708Z,42.44
2019-01-05T12:46:39.868Z,42.03
2019-01-05T12:50:46.328Z,41.70
2019-01-05T12:54:37.952Z,40.56
2019-01-05T12:58:03.326Z,40.48
2019-01-05T13:02:12.267Z,39.82
2019-01-05T13:06:06.788Z,39.05
2019-01-05T13:09:49.439Z,39.09
2019-01-05T13:13:53.482Z,39.21
2019-01-05T13:17:31.043Z,40.36
2019-01-05T13:21:39.452Z,39.95
2019-01-05T13:25:35.677Z,40.28
2019-01-05T13:29:43.206Z,40.67
2019-01-05T13:33:44.861Z,40.99
2019-01-05T13:38:15.750Z,41.22
2019-01-05T13:42:24.501Z,42.12
2019-01-05T13:46:29.969Z,41.37
2019-01-05T13:50:30.015Z,40.82
2019-01-05T13:54:07.961Z,40.40
2019-01-05T13:57:29.645Z,41.24
2019-01-05T14:00:20.502Z,41.66
2019-01-05T14:03:19.952Z,42.25
2019-01-05T14:06:24.886Z,41.94
2019-01-05T14:09:15.352Z,41.93
2019-01-05T14:12:09.539Z,41.72
2019-01-05T14:15:12.305Z,41.14
2019-01-05T14:18:06.362Z,41.27
2019-01-05T14:21:11.160Z,41.18
2019-01-05T14:24:14.181Z,41.27
2019-01-05T14:27:03.659Z,41.86
2019-01-05T14:29:54.210Z,42.95
2019-01-05T14:32:43.293Z,43.55
2019-01-05T14:35:34.967Z,44.18
2019-01-05T14:38:24.805Z,44.04
2019-01-05T14:41:25.089Z,44.85
2019-01-05T14:44:14.544Z,45.15
2019-01-05T14:47:09.004Z,45.59
2019-01-05T14:50:11.456Z,45.12
2019-01-05T14:53:11.164Z,45.60
2019-01-05T14:56:00.667Z,45.36
2019-01-05T14:59:10.566Z,44.98
2019-01-05T15:02:17.135Z,44.91
2019-01-05T15:05:09.362Z,45.98
2019-01-05T15:08:12.649Z,46.21
2019-01-05T15:11:02.607Z,46.88
2019-01-05T15:13:55.169Z,47.30
2019-01-05T15:16:49.883Z,47.91
2019-01-05T15:19:41.838Z,47.47
2019-01-05T15:22:31.555Z,47.26
2019-01-05T15:25:21.358Z,47.76
2019-01-05T15:28:22.183Z,47.86
2019-01-05T15:31:20.141Z,48.05
2019-01-05T15:34:14.302Z,47.39
2019-01-05T15:37:05.505Z,47.45
2019-01-05T15:39:57.154Z,47.39
2019-01-05T15:42:47.403Z,47.43
2019-01-05T15:45:38.519Z,47.47
2019-01-05T15:48:38.801Z,47.27
2019-01-05T15:51:30.042Z,47.43
2019-01-05T15:54:23.377Z,47.39
2019-01-05T15:57:17.414Z,48.49
2019-01-05T16:00:07.511Z,49.11
2019-01-05T16:02:56.859Z,49.54
2019-01-05T16:05:56.306Z,49.97
2019-01-05T16:08:56.240Z,50.72
2019-01-05T16:11:45.839Z,51.07
2019-01-05T16:14:51.915Z,51.23
2019-01-05T16:17:57.685Z,51.32
2019-01-05T16:21:03.183Z,51.67
2019-01-05T16:24:08.701Z,51.31
2019-01-05T16:26:59.196Z,51.82
2019-01-05T16:29:58.727Z,52.25
2019-01-05T16:32:48.406Z,52.13
2019-01-05T16:35:50.419Z,51.58
2019-01-05T16:38:39.664Z,51.55
2019-01-05T16:41:39.078Z,52.26
2019-01-05T16:44:39.861Z,53.57
2019-01-05T16:47:30.450Z,52.77
2019-01-05T16:50:33.410Z,53.03
2019-01-05T16:53:33.123Z,53.52
2019-01-05T16:56:22.903Z,54.42
2019-01-05T16:59:09.805Z,55.38
2019-01-05T17:02:06.845Z,55.53
2019-01-05T17:05:12.779Z,54.69
2019-01-05T17:08:06.231Z,54.71
2019-01-05T17:10:59.793Z,55.77
2019-01-05T17:13:47.409Z,56.47
2019-01-05T17:16:36.063Z,56.97
2019-01-05T17:19:21.960Z,57.08
2019-01-05T17:22:12.962Z,57.27
2019-01-05T17:25:11.213Z,57.39
2019-01-05T17:28:00.408Z,56.68
2019-01-05T17:30:49.654Z,55.76
2019-01-05T17:33:49.457Z,55.65
2019-01-05T17:36:39.228Z,56.05
2019-01-05T17:39:33.819Z,56.97
2019-01-05T17:42:33.509Z,55.56
2019-01-05T17:45:23.090Z,54.85
2019-01-05T17:48:16.048Z,54.91
2019-01-05T17:51:18.687Z,54.69
2019-01-05T17:54:11.212Z,55.39
2019-01-05T17:56:59.478Z,56.37
2019-01-05T17:59:50.321Z,56.32
2019-01-05T18:02:56.040Z,55.90
2019-01-05T18:05:49.357Z,55.63
2019-01-05T18:09:00.236Z,55.59
2019-01-05T18:11:49.856Z,56.34
2019-01-05T18:14:40.146Z,57.08
2019-01-05T18:17:30.865Z,56.18
2019-01-05T18:20:34.162Z,56.93
2019-01-05T18:23:24.506Z,57.31
2019-01-05T18:26:24.738Z,57.64
2019-01-05T18:29:30.901Z,58.47
2019-01-05T18:32:20.315Z,59.29
2019-01-05T18:35:10.851Z,62.95
2019-01-05T18:37:59.626Z,62.80
2019-01-05T18:41:05.759Z,63.41
2019-01-05T18:43:55.189Z,63.07
2019-01-05T18:46:56.169Z,63.04
2019-01-05T18:49:46.096Z,63.53
2019-01-05T18:52:36.692Z,62.95
2019-01-05T18:55:36.816Z,62.75
2019-01-05T18:58:33.432Z,62.93
2019-01-05T19:01:23.617Z,63.15
2019-01-05T19:04:26.363Z,63.29
2019-01-05T19:07:33.839Z,63.14
2019-01-05T19:10:26.004Z,62.69
2019-01-05T19:13:15.233Z,63.28
2019-01-05T19:16:05.906Z,62.59
2019-01-05T19:19:12.813Z,63.69
2019-01-05T19:22:02.602Z,61.86
2019-01-05T19:24:53.977Z,61.43
2019-01-05T19:27:44.791Z,62.64
2019-01-05T19:30:34.793Z,63.54
2019-01-05T19:33:24.582Z,62.67
2019-01-05T19:36:30.870Z,63.94
2019-01-05T19:39:36.701Z,64.64
2019-01-05T19:42:36.398Z,64.16
2019-01-05T19:45:27.079Z,64.34
2019-01-05T19:48:32.715Z,64.37
2019-01-05T19:51:23.217Z,63.85
2019-01-05T19:54:13.931Z,63.68
2019-01-05T19:57:10.665Z,64.08
2019-01-05T20:00:10.325Z,64.95
2019-01-05T20:03:07.072Z,65.86
2019-01-05T20:05:57.554Z,66.31
2019-01-05T20:08:47.235Z,67.54
2019-01-05T20:11:45.717Z,69.39
2019-01-05T20:14:35.079Z,70.21
2019-01-05T20:17:26.462Z,71.32
2019-01-05T20:20:20.253Z,71.56
2019-01-05T20:23:09.865Z,71.95
2019-01-05T20:25:59.420Z,72.37
2019-01-05T20:28:48.260Z,72.82
2019-01-05T20:31:41.705Z,73.12
2019-01-05T20:34:36.162Z,73.21
2019-01-05T20:37:45.094Z,73.43
2019-01-05T20:40:31.897Z,73.42
2019-01-05T20:43:26.703Z,73.17
2019-01-05T20:46:09.510Z,72.12
2019-01-05T20:49:15.365Z,71.52
2019-01-05T20:52:02.959Z,71.16
2019-01-05T20:54:53.890Z,71.04
2019-01-05T20:57:43.345Z,70.89
2019-01-05T21:00:46.408Z,70.37
2019-01-05T21:03:26.259Z,69.80
2019-01-05T21:06:29.025Z,69.33
2019-01-05T21:09:18.103Z,69.29
2019-01-05T21:12:07.584Z,70.35
2019-01-05T21:14:57.854Z,71.28
2019-01-05T21:17:51.239Z,72.16
2019-01-05T21:20:41.802Z,72.54
2019-01-05T21:23:24.484Z,73.11
2019-01-05T21:26:30.246Z,73.85
2019-01-05T21:29:19.595Z,74.63
2019-01-05T21:32:15.954Z,75.72
2019-01-05T21:35:05.259Z,76.87
2019-01-05T21:37:50.910Z,77.78
2019-01-05T21:40:56.938Z,78.56
2019-01-05T21:43:46.591Z,79.29
2019-01-05T21:46:36.510Z,79.17
2019-01-05T21:49:29.128Z,78.57
2019-01-05T21:52:18.587Z,77.90
2019-01-05T21:55:09.709Z,76.88
2019-01-05T21:57:56.727Z,78.04
2019-01-05T22:00:59.664Z,78.57
2019-01-05T22:03:50.033Z,77.94
2019-01-05T22:06:43.817Z,77.93
2019-01-05T22:09:50.472Z,78.37
2019-01-05T22:12:43.953Z,78.02
2019-01-05T22:15:50.377Z,78.02
2019-01-05T22:18:53.239Z,77.77
2019-01-05T22:21:42.634Z,76.96
2019-01-05T22:24:40.464Z,76.53
2019-01-05T22:27:30.959Z,76.19
2019-01-05T22:30:28.021Z,75.72
2019-01-05T22:33:18.707Z,75.26
2019-01-05T22:36:09.298Z,75.88
2019-01-05T22:39:11.064Z,76.72
2019-01-05T22:42:13.487Z,80.28
2019-01-05T22:45:06.733Z,79.96
2019-01-05T22:48:06.700Z,80.18
2019-01-05T22:51:09.731Z,79.85
2019-01-05T22:53:59.388Z,79.97
2019-01-05T22:56:48.959Z,79.93
2019-01-05T22:59:45.382Z,80.09
2019-01-05T23:02:38.771Z,79.98
2019-01-05T23:05:27.911Z,79.48
2019-01-05T23:08:13.782Z,79.41
2019-01-05T23:11:04.200Z,79.10
2019-01-05T23:14:07.153Z,79.20
2019-01-05T23:17:06.732Z,79.63
2019-01-05T23:20:13.193Z,79.93
2019-01-05T23:23:06.431Z,79.86
2019-01-05T23:25:55.809Z,80.08
2019-01-05T23:28:45.197Z,80.33
2019-01-05T23:31:34.966Z,80.60
2019-01-05T23:34:17.581Z,80.94
2019-01-05T23:37:23.859Z,81.24
2019-01-05T23:40:23.543Z,81.94
2019-01-05T23:43:29.186Z,82.61
2019-01-05T23:46:19.958Z,83.16
2019-01-05T23:49:09.721Z,83.86
2019-01-05T23:52:00.701Z,84.07
2019-01-05T23:54:50.100Z,84.90
2019-01-05T23:57:46.717Z,85.74
